sensor_id;sensor_type;location;lat;lon;timestamp;pressure;altitude;pressure_sealevel;temperature;humidity
21236;BME280;10775;42.678;26.324;2023-04-06T00:00:23;98314.94;;;6.69;100.00
21236;BME280;10775;42.678;26.324;2023-04-06T00:02:49;98314.91;;;6.74;100.00
21236;BME280;10775;42.678;26.324;2023-04-06T00:05:14;98311.31;;;6.84;100.00
21236;BME280;10775;42.678;26.324;2023-04-06T00:07:40;98306.09;;;6.87;100.00
21236;BME280;10775;42.678;26.324;2023-04-06T00:10:06;98303.53;;;6.86;100.00
21236;BME280;10775;42.678;26.324;2023-04-06T00:12:32;98299.22;;;6.83;100.00
21236;BME280;10775;42.678;26.324;2023-04-06T00:14:57;98301.06;;;6.75;100.00
21236;BME280;10775;42.678;26.324;2023-04-06T00:17:23;98298.69;;;6.50;100.00
21236;BME280;10775;42.678;26.324;2023-04-06T00:19:48;98295.69;;;6.90;100.00
21236;BME280;10775;42.678;26.324;2023-04-06T00:22:14;98293.72;;;7.11;100.00
21236;BME280;10775;42.678;26.324;2023-04-06T00:24:39;98287.75;;;7.01;100.00
21236;BME280;10775;42.678;26.324;2023-04-06T00:27:05;98291.22;;;7.03;100.00
21236;BME280;10775;42.678;26.324;2023-04-06T00:29:30;98289.50;;;7.01;100.00
21236;BME280;10775;42.678;26.324;2023-04-06T00:31:56;98285.34;;;6.84;100.00
21236;BME280;10775;42.678;26.324;2023-04-06T00:34:21;98278.53;;;6.74;100.00
21236;BME280;10775;42.678;26.324;2023-04-06T00:36:47;98273.28;;;6.77;100.00
21236;BME280;10775;42.678;26.324;2023-04-06T00:39:12;98266.63;;;6.55;98.83
21236;BME280;10775;42.678;26.324;2023-04-06T00:41:39;98276.75;;;6.79;100.00
21236;BME280;10775;42.678;26.324;2023-04-06T00:44:10;98278.94;;;6.31;90.69
21236;BME280;10775;42.678;26.324;2023-04-06T00:46:35;98271.97;;;6.38;100.00
21236;BME280;10775;42.678;26.324;2023-04-06T00:49:01;98272.63;;;6.60;100.00
21236;BME280;10775;42.678;26.324;2023-04-06T00:51:27;98275.75;;;6.89;100.00
21236;BME280;10775;42.678;26.324;2023-04-06T00:53:52;98272.75;;;6.47;97.56
21236;BME280;10775;42.678;26.324;2023-04-06T00:56:18;98275.00;;;6.81;100.00
21236;BME280;10775;42.678;26.324;2023-04-06T00:58:43;98269.78;;;6.81;100.00
21236;BME280;10775;42.678;26.324;2023-04-06T01:01:09;98269.31;;;6.44;95.46
21236;BME280;10775;42.678;26.324;2023-04-06T01:03:35;98262.97;;;6.71;100.00
21236;BME280;10775;42.678;26.324;2023-04-06T01:06:00;98266.31;;;6.82;100.00
21236;BME280;10775;42.678;26.324;2023-04-06T01:08:26;98269.91;;;6.69;100.00
21236;BME280;10775;42.678;26.324;2023-04-06T01:10:52;98263.03;;;6.66;100.00
21236;BME280;10775;42.678;26.324;2023-04-06T01:13:17;98262.03;;;6.78;100.00
21236;BME280;10775;42.678;26.324;2023-04-06T01:15:43;98257.59;;;6.86;100.00
21236;BME280;10775;42.678;26.324;2023-04-06T01:18:08;98253.41;;;6.74;100.00
21236;BME280;10775;42.678;26.324;2023-04-06T01:20:36;98249.34;;;6.49;95.31
21236;BME280;10775;42.678;26.324;2023-04-06T01:23:01;98251.81;;;6.63;100.00
21236;BME280;10775;42.678;26.324;2023-04-06T01:25:27;98251.78;;;6.66;100.00
21236;BME280;10775;42.678;26.324;2023-04-06T01:27:53;98243.72;;;6.07;89.96
21236;BME280;10775;42.678;26.324;2023-04-06T01:30:18;98241.19;;;6.01;95.11
21236;BME280;10775;42.678;26.324;2023-04-06T01:32:44;98230.28;;;6.51;100.00
21236;BME280;10775;42.678;26.324;2023-04-06T01:35:10;98224.47;;;6.28;97.29
21236;BME280;10775;42.678;26.324;2023-04-06T01:37:36;98227.78;;;6.42;100.00
21236;BME280;10775;42.678;26.324;2023-04-06T01:40:02;98229.19;;;6.72;100.00
21236;BME280;10775;42.678;26.324;2023-04-06T01:42:27;98218.81;;;6.72;99.74
21236;BME280;10775;42.678;26.324;2023-04-06T01:44:53;98221.19;;;6.89;100.00
21236;BME280;10775;42.678;26.324;2023-04-06T01:47:19;98225.44;;;6.95;100.00
21236;BME280;10775;42.678;26.324;2023-04-06T01:49:44;98223.75;;;6.92;100.00
21236;BME280;10775;42.678;26.324;2023-04-06T01:52:09;98217.53;;;6.30;92.84
21236;BME280;10775;42.678;26.324;2023-04-06T01:54:35;98217.56;;;6.25;97.28
21236;BME280;10775;42.678;26.324;2023-04-06T01:57:01;98211.13;;;6.62;100.00
21236;BME280;10775;42.678;26.324;2023-04-06T01:59:26;98214.22;;;6.13;90.94
21236;BME280;10775;42.678;26.324;2023-04-06T02:01:51;98217.28;;;6.53;100.00
21236;BME280;10775;42.678;26.324;2023-04-06T02:04:17;98218.25;;;6.41;100.00
21236;BME280;10775;42.678;26.324;2023-04-06T02:06:42;98209.31;;;6.68;100.00
21236;BME280;10775;42.678;26.324;2023-04-06T02:09:08;98209.78;;;6.27;95.32
21236;BME280;10775;42.678;26.324;2023-04-06T02:11:33;98213.97;;;6.40;98.60
21236;BME280;10775;42.678;26.324;2023-04-06T02:13:59;98211.44;;;6.32;94.42
21236;BME280;10775;42.678;26.324;2023-04-06T02:16:26;98208.72;;;6.45;100.00
21236;BME280;10775;42.678;26.324;2023-04-06T02:18:51;98208.19;;;6.12;89.17
21236;BME280;10775;42.678;26.324;2023-04-06T02:21:17;98205.66;;;6.06;93.40
21236;BME280;10775;42.678;26.324;2023-04-06T02:23:48;98213.34;;;6.17;91.89
21236;BME280;10775;42.678;26.324;2023-04-06T02:26:14;98208.22;;;6.09;92.37
21236;BME280;10775;42.678;26.324;2023-04-06T02:28:40;98202.75;;;6.37;100.00
21236;BME280;10775;42.678;26.324;2023-04-06T02:31:05;98214.25;;;6.11;90.27
21236;BME280;10775;42.678;26.324;2023-04-06T02:33:31;98216.94;;;6.03;89.13
21236;BME280;10775;42.678;26.324;2023-04-06T02:35:56;98209.75;;;6.30;100.00
21236;BME280;10775;42.678;26.324;2023-04-06T02:38:22;98208.56;;;6.60;100.00
21236;BME280;10775;42.678;26.324;2023-04-06T02:40:47;98203.50;;;6.46;96.21
21236;BME280;10775;42.678;26.324;2023-04-06T02:43:13;98212.91;;;6.57;100.00
21236;BME280;10775;42.678;26.324;2023-04-06T02:45:38;98210.16;;;6.70;100.00
21236;BME280;10775;42.678;26.324;2023-04-06T02:48:04;98215.31;;;6.75;98.60
21236;BME280;10775;42.678;26.324;2023-04-06T02:50:30;98215.53;;;6.53;93.95
21236;BME280;10775;42.678;26.324;2023-04-06T02:52:55;98214.81;;;6.42;94.68
21236;BME280;10775;42.678;26.324;2023-04-06T02:55:21;98219.22;;;6.32;91.58
21236;BME280;10775;42.678;26.324;2023-04-06T02:57:46;98220.03;;;6.39;92.35
21236;BME280;10775;42.678;26.324;2023-04-06T03:00:12;98224.19;;;6.56;99.30
21236;BME280;10775;42.678;26.324;2023-04-06T03:02:38;98225.41;;;6.24;92.29
21236;BME280;10775;42.678;26.324;2023-04-06T03:05:04;98222.72;;;6.28;95.84
21236;BME280;10775;42.678;26.324;2023-04-06T03:07:29;98222.78;;;6.24;91.71
21236;BME280;10775;42.678;26.324;2023-04-06T03:09:55;98229.88;;;6.06;96.46
21236;BME280;10775;42.678;26.324;2023-04-06T03:12:20;98231.50;;;6.15;93.75
21236;BME280;10775;42.678;26.324;2023-04-06T03:14:46;98225.41;;;6.21;91.46
21236;BME280;10775;42.678;26.324;2023-04-06T03:17:11;98234.28;;;5.98;89.55
21236;BME280;10775;42.678;26.324;2023-04-06T03:19:37;98236.16;;;5.72;86.65
21236;BME280;10775;42.678;26.324;2023-04-06T03:22:02;98234.28;;;5.97;97.19
21236;BME280;10775;42.678;26.324;2023-04-06T03:24:28;98230.44;;;6.36;100.00
21236;BME280;10775;42.678;26.324;2023-04-06T03:26:53;98238.56;;;6.02;86.74
21236;BME280;10775;42.678;26.324;2023-04-06T03:29:19;98239.50;;;5.89;87.43
21236;BME280;10775;42.678;26.324;2023-04-06T03:31:44;98237.69;;;6.03;95.25
21236;BME280;10775;42.678;26.324;2023-04-06T03:34:10;98234.16;;;6.10;97.71
21236;BME280;10775;42.678;26.324;2023-04-06T03:36:35;98245.19;;;6.31;99.51
21236;BME280;10775;42.678;26.324;2023-04-06T03:39:01;98251.44;;;6.13;94.18
21236;BME280;10775;42.678;26.324;2023-04-06T03:41:26;98251.59;;;5.95;87.23
21236;BME280;10775;42.678;26.324;2023-04-06T03:43:52;98242.84;;;6.06;95.02
21236;BME280;10775;42.678;26.324;2023-04-06T03:46:18;98246.16;;;6.24;95.78
21236;BME280;10775;42.678;26.324;2023-04-06T03:48:43;98241.81;;;6.23;96.08
21236;BME280;10775;42.678;26.324;2023-04-06T03:51:09;98234.69;;;6.43;100.00
21236;BME280;10775;42.678;26.324;2023-04-06T03:53:34;98240.16;;;6.17;87.87
21236;BME280;10775;42.678;26.324;2023-04-06T03:56:02;98241.94;;;6.10;90.42
21236;BME280;10775;42.678;26.324;2023-04-06T03:58:27;98231.78;;;5.81;86.55
21236;BME280;10775;42.678;26.324;2023-04-06T04:00:53;98236.16;;;5.72;83.60
21236;BME280;10775;42.678;26.324;2023-04-06T04:03:18;98242.75;;;6.19;99.15
21236;BME280;10775;42.678;26.324;2023-04-06T04:05:44;98237.38;;;6.37;95.63
21236;BME280;10775;42.678;26.324;2023-04-06T04:08:10;98232.09;;;6.45;100.00
21236;BME280;10775;42.678;26.324;2023-04-06T04:10:35;98227.03;;;6.32;93.53
21236;BME280;10775;42.678;26.324;2023-04-06T04:13:01;98229.50;;;6.43;97.34
21236;BME280;10775;42.678;26.324;2023-04-06T04:15:26;98236.41;;;6.47;98.83
21236;BME280;10775;42.678;26.324;2023-04-06T04:17:52;98241.34;;;6.69;98.18
21236;BME280;10775;42.678;26.324;2023-04-06T04:20:17;98233.78;;;6.49;99.39
21236;BME280;10775;42.678;26.324;2023-04-06T04:22:42;98237.00;;;6.71;96.62
21236;BME280;10775;42.678;26.324;2023-04-06T04:25:09;98229.94;;;6.82;100.00
21236;BME280;10775;42.678;26.324;2023-04-06T04:27:34;98234.09;;;6.97;98.12
21236;BME280;10775;42.678;26.324;2023-04-06T04:30:00;98231.38;;;7.06;100.00
21236;BME280;10775;42.678;26.324;2023-04-06T04:32:26;98239.13;;;7.09;100.00
21236;BME280;10775;42.678;26.324;2023-04-06T04:34:53;98241.03;;;6.96;98.98
21236;BME280;10775;42.678;26.324;2023-04-06T04:37:18;98239.22;;;7.00;99.47
21236;BME280;10775;42.678;26.324;2023-04-06T04:39:45;98235.81;;;6.98;93.33
21236;BME280;10775;42.678;26.324;2023-04-06T04:42:10;98237.19;;;6.54;76.16
21236;BME280;10775;42.678;26.324;2023-04-06T04:44:36;98235.31;;;6.67;93.86
21236;BME280;10775;42.678;26.324;2023-04-06T04:47:02;98237.28;;;6.45;83.78
21236;BME280;10775;42.678;26.324;2023-04-06T04:49:27;98232.22;;;6.31;77.30
21236;BME280;10775;42.678;26.324;2023-04-06T04:51:52;98230.44;;;6.36;80.89
21236;BME280;10775;42.678;26.324;2023-04-06T04:54:18;98236.44;;;6.44;86.48
21236;BME280;10775;42.678;26.324;2023-04-06T04:56:44;98231.22;;;6.46;82.42
21236;BME280;10775;42.678;26.324;2023-04-06T04:59:10;98228.69;;;6.38;72.81
21236;BME280;10775;42.678;26.324;2023-04-06T05:01:36;98236.44;;;6.43;89.74
21236;BME280;10775;42.678;26.324;2023-04-06T05:04:01;98233.75;;;6.50;73.94
21236;BME280;10775;42.678;26.324;2023-04-06T05:06:27;98236.00;;;6.81;87.60
21236;BME280;10775;42.678;26.324;2023-04-06T05:08:52;98243.94;;;6.69;85.65
21236;BME280;10775;42.678;26.324;2023-04-06T05:11:18;98242.00;;;6.86;88.79
21236;BME280;10775;42.678;26.324;2023-04-06T05:13:43;98230.53;;;7.06;88.16
21236;BME280;10775;42.678;26.324;2023-04-06T05:16:09;98231.81;;;6.71;82.15
21236;BME280;10775;42.678;26.324;2023-04-06T05:18:34;98229.38;;;6.57;80.63
21236;BME280;10775;42.678;26.324;2023-04-06T05:21:00;98230.28;;;6.55;77.24
21236;BME280;10775;42.678;26.324;2023-04-06T05:23:25;98229.47;;;6.48;73.13
21236;BME280;10775;42.678;26.324;2023-04-06T05:25:51;98234.03;;;6.23;76.48
21236;BME280;10775;42.678;26.324;2023-04-06T05:28:17;98227.19;;;6.16;70.81
21236;BME280;10775;42.678;26.324;2023-04-06T05:30:44;98221.78;;;6.36;82.51
21236;BME280;10775;42.678;26.324;2023-04-06T05:33:10;98227.84;;;6.38;71.30
21236;BME280;10775;42.678;26.324;2023-04-06T05:35:36;98225.06;;;6.55;77.16
21236;BME280;10775;42.678;26.324;2023-04-06T05:38:01;98220.84;;;6.44;71.94
21236;BME280;10775;42.678;26.324;2023-04-06T05:40:27;98213.78;;;6.56;71.53
21236;BME280;10775;42.678;26.324;2023-04-06T05:42:52;98218.25;;;6.41;73.85
21236;BME280;10775;42.678;26.324;2023-04-06T05:45:19;98222.41;;;6.61;75.66
21236;BME280;10775;42.678;26.324;2023-04-06T05:47:45;98212.78;;;6.69;73.12
21236;BME280;10775;42.678;26.324;2023-04-06T05:50:12;98213.69;;;6.65;68.87
21236;BME280;10775;42.678;26.324;2023-04-06T05:52:37;98210.53;;;7.09;82.32
21236;BME280;10775;42.678;26.324;2023-04-06T05:55:04;98207.16;;;7.61;84.15
21236;BME280;10775;42.678;26.324;2023-04-06T05:57:30;98200.28;;;8.10;97.17
21236;BME280;10775;42.678;26.324;2023-04-06T05:59:55;98209.13;;;8.03;88.76
21236;BME280;10775;42.678;26.324;2023-04-06T06:02:21;98203.91;;;8.53;97.17
21236;BME280;10775;42.678;26.324;2023-04-06T06:04:47;98200.38;;;8.55;82.35
21236;BME280;10775;42.678;26.324;2023-04-06T06:07:13;98205.91;;;8.37;85.39
21236;BME280;10775;42.678;26.324;2023-04-06T06:09:39;98202.09;;;8.06;83.63
21236;BME280;10775;42.678;26.324;2023-04-06T06:12:04;98197.53;;;7.68;88.60
21236;BME280;10775;42.678;26.324;2023-04-06T06:14:30;98201.44;;;7.95;91.39
21236;BME280;10775;42.678;26.324;2023-04-06T06:16:55;98197.31;;;8.32;82.85
21236;BME280;10775;42.678;26.324;2023-04-06T06:19:20;98195.34;;;7.95;82.66
21236;BME280;10775;42.678;26.324;2023-04-06T06:21:46;98198.47;;;8.63;79.52
21236;BME280;10775;42.678;26.324;2023-04-06T06:24:11;98193.97;;;8.71;72.33
21236;BME280;10775;42.678;26.324;2023-04-06T06:26:37;98192.56;;;8.55;85.66
21236;BME280;10775;42.678;26.324;2023-04-06T06:29:04;98193.16;;;8.69;94.12
21236;BME280;10775;42.678;26.324;2023-04-06T06:31:30;98194.84;;;8.70;74.70
21236;BME280;10775;42.678;26.324;2023-04-06T06:33:56;98195.38;;;8.44;76.74
21236;BME280;10775;42.678;26.324;2023-04-06T06:36:21;98205.88;;;8.40;82.95
21236;BME280;10775;42.678;26.324;2023-04-06T06:38:47;98204.50;;;8.65;91.49
21236;BME280;10775;42.678;26.324;2023-04-06T06:41:13;98199.31;;;9.46;94.57
21236;BME280;10775;42.678;26.324;2023-04-06T06:43:38;98196.00;;;9.77;78.48
21236;BME280;10775;42.678;26.324;2023-04-06T06:46:04;98194.66;;;11.51;74.91
21236;BME280;10775;42.678;26.324;2023-04-06T06:48:30;98195.75;;;11.44;68.68
21236;BME280;10775;42.678;26.324;2023-04-06T06:50:56;98200.06;;;12.26;67.72
21236;BME280;10775;42.678;26.324;2023-04-06T06:53:22;98191.28;;;12.02;59.61
21236;BME280;10775;42.678;26.324;2023-04-06T06:55:47;98205.88;;;13.08;68.06
21236;BME280;10775;42.678;26.324;2023-04-06T06:58:18;98199.38;;;12.46;66.52
21236;BME280;10775;42.678;26.324;2023-04-06T07:00:44;98210.31;;;12.82;83.23
21236;BME280;10775;42.678;26.324;2023-04-06T07:03:09;98199.50;;;12.43;77.86
21236;BME280;10775;42.678;26.324;2023-04-06T07:05:35;98212.91;;;11.81;78.49
21236;BME280;10775;42.678;26.324;2023-04-06T07:08:00;98210.03;;;11.34;77.71
21236;BME280;10775;42.678;26.324;2023-04-06T07:10:26;98203.16;;;10.70;65.42
21236;BME280;10775;42.678;26.324;2023-04-06T07:12:52;98209.91;;;10.12;73.38
21236;BME280;10775;42.678;26.324;2023-04-06T07:15:17;98213.25;;;10.17;80.24
21236;BME280;10775;42.678;26.324;2023-04-06T07:17:43;98213.34;;;9.78;67.82
21236;BME280;10775;42.678;26.324;2023-04-06T07:20:11;98226.88;;;10.30;92.04
21236;BME280;10775;42.678;26.324;2023-04-06T07:22:38;98216.19;;;10.72;92.90
21236;BME280;10775;42.678;26.324;2023-04-06T07:25:03;98213.28;;;10.82;93.96
21236;BME280;10775;42.678;26.324;2023-04-06T07:27:29;98212.31;;;10.86;94.32
21236;BME280;10775;42.678;26.324;2023-04-06T07:29:55;98220.84;;;11.21;96.31
21236;BME280;10775;42.678;26.324;2023-04-06T07:32:20;98215.47;;;10.96;83.73
21236;BME280;10775;42.678;26.324;2023-04-06T07:34:46;98219.59;;;11.05;95.51
21236;BME280;10775;42.678;26.324;2023-04-06T07:37:12;98224.91;;;11.31;92.22
21236;BME280;10775;42.678;26.324;2023-04-06T07:39:38;98219.53;;;11.36;93.97
21236;BME280;10775;42.678;26.324;2023-04-06T07:42:03;98217.88;;;11.62;93.35
21236;BME280;10775;42.678;26.324;2023-04-06T07:44:29;98222.88;;;11.69;93.09
21236;BME280;10775;42.678;26.324;2023-04-06T07:46:54;98215.63;;;11.49;75.91
21236;BME280;10775;42.678;26.324;2023-04-06T07:49:20;98222.38;;;10.99;93.36
21236;BME280;10775;42.678;26.324;2023-04-06T07:51:46;98218.22;;;11.51;96.02
21236;BME280;10775;42.678;26.324;2023-04-06T07:54:11;98227.75;;;11.53;92.70
21236;BME280;10775;42.678;26.324;2023-04-06T07:56:37;98216.97;;;11.35;92.43
21236;BME280;10775;42.678;26.324;2023-04-06T07:59:02;98216.31;;;11.28;92.84
21236;BME280;10775;42.678;26.324;2023-04-06T08:01:28;98222.16;;;11.64;95.46
21236;BME280;10775;42.678;26.324;2023-04-06T08:03:56;98223.09;;;11.63;91.18
21236;BME280;10775;42.678;26.324;2023-04-06T08:06:21;98224.25;;;11.25;84.23
21236;BME280;10775;42.678;26.324;2023-04-06T08:08:47;98216.50;;;11.50;95.62
21236;BME280;10775;42.678;26.324;2023-04-06T08:11:12;98224.19;;;11.56;79.25
21236;BME280;10775;42.678;26.324;2023-04-06T08:13:37;98215.00;;;11.43;87.73
21236;BME280;10775;42.678;26.324;2023-04-06T08:16:03;98210.94;;;11.61;86.52
21236;BME280;10775;42.678;26.324;2023-04-06T08:18:29;98214.56;;;11.27;90.57
21236;BME280;10775;42.678;26.324;2023-04-06T08:20:55;98218.00;;;11.29;86.93
21236;BME280;10775;42.678;26.324;2023-04-06T08:23:21;98220.13;;;11.46;96.25
21236;BME280;10775;42.678;26.324;2023-04-06T08:25:46;98217.75;;;11.66;85.56
21236;BME280;10775;42.678;26.324;2023-04-06T08:28:12;98213.81;;;11.80;94.85
21236;BME280;10775;42.678;26.324;2023-04-06T08:30:41;98216.78;;;11.97;89.13
21236;BME280;10775;42.678;26.324;2023-04-06T08:33:07;98211.59;;;12.22;88.90
21236;BME280;10775;42.678;26.324;2023-04-06T08:35:32;98211.59;;;12.22;86.68
21236;BME280;10775;42.678;26.324;2023-04-06T08:37:57;98217.59;;;11.99;75.92
21236;BME280;10775;42.678;26.324;2023-04-06T08:40:23;98215.53;;;11.81;81.09
21236;BME280;10775;42.678;26.324;2023-04-06T08:42:52;98222.88;;;11.98;72.64
21236;BME280;10775;42.678;26.324;2023-04-06T08:45:19;98217.66;;;10.82;59.65
21236;BME280;10775;42.678;26.324;2023-04-06T08:47:47;98210.47;;;11.20;73.44
21236;BME280;10775;42.678;26.324;2023-04-06T08:50:14;98212.38;;;11.13;74.83
21236;BME280;10775;42.678;26.324;2023-04-06T08:52:46;98206.56;;;11.03;66.18
21236;BME280;10775;42.678;26.324;2023-04-06T08:55:12;98207.66;;;11.54;65.26
21236;BME280;10775;42.678;26.324;2023-04-06T08:57:37;98196.22;;;10.99;66.35
21236;BME280;10775;42.678;26.324;2023-04-06T09:00:04;98200.47;;;11.32;60.04
21236;BME280;10775;42.678;26.324;2023-04-06T09:02:31;98196.16;;;10.71;58.41
21236;BME280;10775;42.678;26.324;2023-04-06T09:04:57;98182.78;;;10.50;57.20
21236;BME280;10775;42.678;26.324;2023-04-06T09:07:23;98184.97;;;10.65;58.51
21236;BME280;10775;42.678;26.324;2023-04-06T09:09:49;98188.78;;;11.99;70.54
21236;BME280;10775;42.678;26.324;2023-04-06T09:14:48;98185.63;;;12.88;66.58
21236;BME280;10775;42.678;26.324;2023-04-06T09:17:27;98190.34;;;11.77;54.07
21236;BME280;10775;42.678;26.324;2023-04-06T09:19:53;98192.19;;;11.73;74.87
21236;BME280;10775;42.678;26.324;2023-04-06T09:22:19;98187.34;;;12.89;73.99
21236;BME280;10775;42.678;26.324;2023-04-06T09:24:46;98177.97;;;12.35;63.29
21236;BME280;10775;42.678;26.324;2023-04-06T09:27:12;98176.38;;;12.04;54.34
21236;BME280;10775;42.678;26.324;2023-04-06T09:29:38;98179.66;;;11.56;56.38
21236;BME280;10775;42.678;26.324;2023-04-06T09:32:07;98174.44;;;12.34;72.85
21236;BME280;10775;42.678;26.324;2023-04-06T09:34:37;98177.75;;;12.65;71.09
21236;BME280;10775;42.678;26.324;2023-04-06T09:37:15;98173.13;;;12.48;72.73
21236;BME280;10775;42.678;26.324;2023-04-06T09:39:41;98171.38;;;12.48;74.54
21236;BME280;10775;42.678;26.324;2023-04-06T09:42:06;98177.88;;;12.11;70.37
21236;BME280;10775;42.678;26.324;2023-04-06T09:44:32;98174.69;;;11.20;58.74
21236;BME280;10775;42.678;26.324;2023-04-06T09:46:58;98177.78;;;11.03;67.61
21236;BME280;10775;42.678;26.324;2023-04-06T09:49:24;98168.34;;;11.56;75.85
21236;BME280;10775;42.678;26.324;2023-04-06T09:51:59;98166.16;;;11.96;68.41
21236;BME280;10775;42.678;26.324;2023-04-06T09:54:29;98163.06;;;12.35;67.82
21236;BME280;10775;42.678;26.324;2023-04-06T09:57:07;98163.94;;;12.36;66.75
21236;BME280;10775;42.678;26.324;2023-04-06T10:02:34;98167.09;;;12.21;67.42
21236;BME280;10775;42.678;26.324;2023-04-06T10:05:09;98168.34;;;12.34;70.30
21236;BME280;10775;42.678;26.324;2023-04-06T10:07:36;98167.97;;;12.45;66.80
21236;BME280;10775;42.678;26.324;2023-04-06T10:10:03;98161.69;;;12.25;67.20
21236;BME280;10775;42.678;26.324;2023-04-06T10:12:28;98160.22;;;12.16;68.75
21236;BME280;10775;42.678;26.324;2023-04-06T10:14:55;98170.63;;;11.66;65.94
21236;BME280;10775;42.678;26.324;2023-04-06T10:17:21;98168.38;;;11.81;74.30
21236;BME280;10775;42.678;26.324;2023-04-06T10:22:21;98167.59;;;12.05;73.65
21236;BME280;10775;42.678;26.324;2023-04-06T10:24:49;98166.47;;;11.86;75.14
21236;BME280;10775;42.678;26.324;2023-04-06T10:27:14;98163.75;;;12.15;78.36
21236;BME280;10775;42.678;26.324;2023-04-06T10:29:44;98164.75;;;12.11;65.42
21236;BME280;10775;42.678;26.324;2023-04-06T10:32:11;98171.47;;;11.67;69.63
21236;BME280;10775;42.678;26.324;2023-04-06T10:34:37;98170.94;;;11.84;77.77
21236;BME280;10775;42.678;26.324;2023-04-06T10:37:15;98162.88;;;11.90;76.28
21236;BME280;10775;42.678;26.324;2023-04-06T10:40:17;98162.00;;;12.16;78.16
21236;BME280;10775;42.678;26.324;2023-04-06T10:42:43;98161.94;;;11.92;67.12
21236;BME280;10775;42.678;26.324;2023-04-06T10:45:19;98162.56;;;12.24;81.55
21236;BME280;10775;42.678;26.324;2023-04-06T10:47:45;98160.75;;;12.51;81.48
21236;BME280;10775;42.678;26.324;2023-04-06T10:50:14;98163.16;;;12.57;81.46
21236;BME280;10775;42.678;26.324;2023-04-06T10:52:41;98161.59;;;12.52;82.13
21236;BME280;10775;42.678;26.324;2023-04-06T10:55:08;98161.16;;;12.64;82.45
21236;BME280;10775;42.678;26.324;2023-04-06T10:57:35;98156.66;;;12.68;80.69
21236;BME280;10775;42.678;26.324;2023-04-06T11:00:06;98148.94;;;12.39;75.89
21236;BME280;10775;42.678;26.324;2023-04-06T11:02:34;98143.22;;;12.53;82.19
21236;BME280;10775;42.678;26.324;2023-04-06T11:05:00;98151.97;;;12.52;76.15
21236;BME280;10775;42.678;26.324;2023-04-06T11:07:27;98150.00;;;12.59;86.31
21236;BME280;10775;42.678;26.324;2023-04-06T11:09:54;98142.03;;;12.37;72.82
21236;BME280;10775;42.678;26.324;2023-04-06T11:12:25;98150.94;;;11.81;81.50
21236;BME280;10775;42.678;26.324;2023-04-06T11:15:01;98139.81;;;12.26;83.73
21236;BME280;10775;42.678;26.324;2023-04-06T11:17:35;98146.03;;;12.47;72.45
21236;BME280;10775;42.678;26.324;2023-04-06T11:20:02;98142.50;;;12.25;80.81
21236;BME280;10775;42.678;26.324;2023-04-06T11:22:28;98145.44;;;12.64;86.61
21236;BME280;10775;42.678;26.324;2023-04-06T11:25:07;98139.63;;;12.79;83.12
21236;BME280;10775;42.678;26.324;2023-04-06T11:27:34;98141.16;;;12.13;62.03
21236;BME280;10775;42.678;26.324;2023-04-06T11:30:01;98130.50;;;12.17;86.23
21236;BME280;10775;42.678;26.324;2023-04-06T11:32:27;98133.47;;;12.32;79.28
21236;BME280;10775;42.678;26.324;2023-04-06T11:34:53;98136.28;;;12.02;72.42
21236;BME280;10775;42.678;26.324;2023-04-06T11:37:18;98127.06;;;11.90;77.89
21236;BME280;10775;42.678;26.324;2023-04-06T11:39:50;98124.97;;;12.50;85.80
21236;BME280;10775;42.678;26.324;2023-04-06T11:42:27;98118.00;;;12.73;71.54
21236;BME280;10775;42.678;26.324;2023-04-06T11:47:27;98109.06;;;13.46;74.77
21236;BME280;10775;42.678;26.324;2023-04-06T11:49:53;98109.00;;;13.90;78.36
21236;BME280;10775;42.678;26.324;2023-04-06T11:52:26;98101.25;;;13.87;58.83
21236;BME280;10775;42.678;26.324;2023-04-06T11:54:53;98113.41;;;13.89;76.85
21236;BME280;10775;42.678;26.324;2023-04-06T11:57:21;98107.19;;;14.31;73.77
21236;BME280;10775;42.678;26.324;2023-04-06T11:59:48;98113.66;;;13.63;66.13
21236;BME280;10775;42.678;26.324;2023-04-06T12:02:13;98115.31;;;13.86;80.98
21236;BME280;10775;42.678;26.324;2023-04-06T12:04:39;98108.66;;;14.18;81.73
21236;BME280;10775;42.678;26.324;2023-04-06T12:07:04;98109.13;;;14.28;73.46
21236;BME280;10775;42.678;26.324;2023-04-06T12:09:31;98107.50;;;14.05;79.86
21236;BME280;10775;42.678;26.324;2023-04-06T12:11:56;98095.53;;;13.98;77.94
21236;BME280;10775;42.678;26.324;2023-04-06T12:14:22;98106.56;;;13.85;77.24
21236;BME280;10775;42.678;26.324;2023-04-06T12:16:48;98108.31;;;13.64;80.02
21236;BME280;10775;42.678;26.324;2023-04-06T12:19:13;98103.91;;;13.65;78.63
21236;BME280;10775;42.678;26.324;2023-04-06T12:21:39;98107.19;;;13.70;84.39
21236;BME280;10775;42.678;26.324;2023-04-06T12:24:05;98104.38;;;13.75;81.69
21236;BME280;10775;42.678;26.324;2023-04-06T12:26:31;98103.53;;;13.74;82.90
21236;BME280;10775;42.678;26.324;2023-04-06T12:28:58;98104.88;;;13.62;72.37
21236;BME280;10775;42.678;26.324;2023-04-06T12:31:30;98103.50;;;13.54;81.84
21236;BME280;10775;42.678;26.324;2023-04-06T12:33:55;98099.28;;;13.49;77.07
21236;BME280;10775;42.678;26.324;2023-04-06T12:36:21;98109.56;;;13.34;82.73
21236;BME280;10775;42.678;26.324;2023-04-06T12:38:47;98099.72;;;13.17;76.03
21236;BME280;10775;42.678;26.324;2023-04-06T12:41:13;98105.50;;;13.25;79.19
21236;BME280;10775;42.678;26.324;2023-04-06T12:43:39;98099.72;;;13.39;84.19
21236;BME280;10775;42.678;26.324;2023-04-06T12:46:05;98100.75;;;13.57;83.58
21236;BME280;10775;42.678;26.324;2023-04-06T12:48:31;98106.25;;;13.29;85.22
21236;BME280;10775;42.678;26.324;2023-04-06T12:50:58;98096.91;;;12.99;75.71
21236;BME280;10775;42.678;26.324;2023-04-06T12:53:24;98102.78;;;12.59;69.55
21236;BME280;10775;42.678;26.324;2023-04-06T12:55:51;98094.41;;;12.96;85.53
21236;BME280;10775;42.678;26.324;2023-04-06T12:58:17;98099.13;;;13.09;80.43